Time;durP1;ratioP1;P1;durP2;ratioP2;P2;SDS_P1;SDS_P2;PMS_P1;PMS_P2;Temp;Humidity;BMP_temperature;BMP_pressure;BME280_temperature;BME280_humidity;BME280_pressure;Samples;Min_cycle;Max_cycle;Signal;HPM_P1;HPM_P2
2022/10/23 00:00:09;;;;;;;3.28;1.75;;;;;;;19.88;49.49;101158.78;5055792;28;20048;-59
2022/10/23 00:02:34;;;;;;;4.00;2.05;;;;;;;19.80;48.80;101146.09;5037718;28;20543;-59
2022/10/23 00:05:00;;;;;;;6.43;1.95;;;;;;;19.82;49.01;101154.91;5037717;28;20486;-63
2022/10/23 00:07:25;;;;;;;7.63;2.03;;;;;;;19.82;48.79;101159.50;5037624;28;20029;-59
2022/10/23 00:09:51;;;;;;;6.38;2.38;;;;;;;19.79;48.86;101149.84;5055441;28;20433;-59
2022/10/23 00:12:16;;;;;;;6.40;2.58;;;;;;;19.74;48.86;101146.78;5055587;28;20104;-59
2022/10/23 00:14:41;;;;;;;4.43;2.13;;;;;;;19.74;49.09;101157.66;5055332;28;20029;-59
2022/10/23 00:17:09;;;;;;;4.15;2.03;;;;;;;19.71;48.26;101153.44;5037334;28;20108;-59
2022/10/23 00:19:34;;;;;;;5.50;2.10;;;;;;;19.65;49.06;101147.91;5055194;28;20039;-59
2022/10/23 00:22:00;;;;;;;5.13;1.73;;;;;;;19.65;48.91;101148.72;5055182;28;20037;-60
2022/10/23 00:24:25;;;;;;;3.80;1.65;;;;;;;19.64;48.79;101146.19;5055256;28;20040;-60
2022/10/23 00:26:50;;;;;;;5.88;2.45;;;;;;;19.62;48.61;101137.38;5055203;28;20371;-60
2022/10/23 00:29:16;;;;;;;7.22;2.22;;;;;;;19.60;48.66;101140.28;5055184;28;20071;-68
2022/10/23 00:31:41;;;;;;;4.40;2.20;;;;;;;19.58;48.70;101134.19;5055142;28;20498;-59
2022/10/23 00:34:07;;;;;;;7.03;2.15;;;;;;;19.43;48.77;101116.94;5054392;28;20766;-60
2022/10/23 00:36:32;;;;;;;5.97;2.40;;;;;;;19.53;49.28;101130.31;5048322;28;20429;-60
2022/10/23 00:38:58;;;;;;;10.68;2.63;;;;;;;19.52;49.09;101136.75;5037132;28;20032;-60
2022/10/23 00:41:27;;;;;;;8.88;2.50;;;;;;;19.50;48.84;101127.94;5054768;28;20454;-59
2022/10/23 00:43:58;;;;;;;6.10;2.42;;;;;;;19.47;49.04;101133.75;5054803;28;20040;-59
2022/10/23 00:46:24;;;;;;;6.72;3.97;;;;;;;19.44;48.88;101128.66;5054314;28;20032;-59
2022/10/23 00:48:49;;;;;;;7.50;2.85;;;;;;;19.43;48.91;101127.81;5054807;28;20043;-59
2022/10/23 00:51:15;;;;;;;3.33;2.10;;;;;;;19.42;48.91;101125.28;5054634;28;20378;-59
2022/10/23 00:53:42;;;;;;;5.75;1.80;;;;;;;19.37;48.85;101114.94;5036951;28;20086;-59
2022/10/23 00:56:07;;;;;;;5.97;2.15;;;;;;;19.38;48.74;101123.91;5054734;28;20581;-59
2022/10/23 00:58:33;;;;;;;4.80;2.28;;;;;;;19.37;48.78;101130.38;5054664;28;20040;-59
2022/10/23 01:00:58;;;;;;;7.13;2.45;;;;;;;19.35;49.09;101129.69;5054267;28;20450;-60
2022/10/23 01:03:25;;;;;;;5.97;2.15;;;;;;;19.34;48.92;101125.31;5054463;28;20045;-59
2022/10/23 01:06:06;;;;;;;3.42;2.03;;;;;;;19.33;49.16;101126.31;5004001;28;20049;-59
2022/10/23 01:08:46;;;;;;;4.38;1.85;;;;;;;19.30;49.06;101115.81;5054361;28;20080;-64
2022/10/23 01:11:16;;;;;;;2.63;1.50;;;;;;;19.24;48.79;101105.66;5036646;28;20029;-60
2022/10/23 01:13:47;;;;;;;5.47;1.30;;;;;;;19.26;49.32;101103.63;5053178;28;20055;-59
2022/10/23 01:16:33;;;;;;;3.15;1.50;;;;;;;19.23;49.01;101099.41;5054044;28;20036;-60
2022/10/23 01:19:14;;;;;;;3.10;1.45;;;;;;;19.22;49.21;101102.28;5054114;28;20032;-59
2022/10/23 01:21:48;;;;;;;2.47;2.28;;;;;;;19.18;48.81;101097.19;5036548;28;20473;-60
2022/10/23 01:24:19;;;;;;;4.95;2.00;;;;;;;19.18;48.93;101102.63;5054067;28;20032;-59
2022/10/23 01:26:56;;;;;;;6.35;2.30;;;;;;;19.18;49.12;101099.06;5036275;28;20116;-59
2022/10/23 01:29:36;;;;;;;8.80;2.72;;;;;;;19.17;49.35;101105.53;5053977;28;20394;-59
2022/10/23 01:32:19;;;;;;;4.03;2.35;;;;;;;19.15;48.71;101099.44;5035997;28;20041;-59
2022/10/23 01:35:03;;;;;;;3.67;1.85;;;;;;;19.14;49.27;101098.59;5036257;28;20524;-59
2022/10/23 01:37:42;;;;;;;9.52;1.73;;;;;;;19.11;48.90;101088.09;5054093;28;20486;-60
2022/10/23 01:40:17;;;;;;;2.72;1.67;;;;;;;19.10;49.10;101086.38;5036051;28;20017;-59
2022/10/23 01:42:47;;;;;;;3.05;1.20;;;;;;;19.09;49.13;101075.72;5054046;28;20067;-59
2022/10/23 01:45:35;;;;;;;1.95;1.33;;;;;;;19.09;49.46;101073.00;5035944;28;20443;-59
2022/10/23 01:48:01;;;;;;;4.97;1.33;;;;;;;19.08;49.40;101068.56;5035960;28;20028;-59
2022/10/23 01:50:28;;;;;;;5.03;1.63;;;;;;;19.04;48.95;101065.34;5052366;28;20390;-59
2022/10/23 01:52:53;;;;;;;4.35;1.77;;;;;;;19.06;48.95;101070.63;5035847;28;20029;-60
2022/10/23 01:55:19;;;;;;;7.47;1.90;;;;;;;19.04;49.39;101067.22;5053638;28;20047;-60
2022/10/23 01:57:46;;;;;;;4.18;1.88;;;;;;;19.04;48.88;101070.78;5034953;28;20017;-59
2022/10/23 02:00:13;;;;;;;7.05;2.08;;;;;;;19.03;49.18;101066.41;5035742;28;20017;-60
2022/10/23 02:02:40;;;;;;;8.80;2.10;;;;;;;19.04;49.19;101072.66;5052297;28;20029;-59
2022/10/23 02:05:07;;;;;;;2.72;2.40;;;;;;;19.01;49.18;101063.00;5035754;28;20025;-59
2022/10/23 02:07:33;;;;;;;4.55;1.88;;;;;;;19.04;48.61;101056.38;5053378;28;20029;-59
2022/10/23 02:09:59;;;;;;;4.68;2.10;;;;;;;19.01;49.81;101046.72;5035615;28;20028;-59
2022/10/23 02:12:30;;;;;;;7.55;2.22;;;;;;;19.01;49.79;101045.88;5035569;28;20047;-59
2022/10/23 02:15:02;;;;;;;10.30;2.42;;;;;;;19.05;49.55;101048.06;5035481;28;20025;-63
2022/10/23 02:17:43;;;;;;;3.00;2.40;;;;;;;19.06;49.54;101041.63;5053148;28;20032;-59
2022/10/23 02:20:16;;;;;;;5.60;2.30;;;;;;;19.07;49.18;101035.13;5053215;28;20025;-59
2022/10/23 02:22:48;;;;;;;10.02;1.77;;;;;;;19.07;49.28;101043.28;5035493;28;20587;-59
2022/10/23 02:25:17;;;;;;;5.47;2.50;;;;;;;19.11;49.58;101047.34;5035462;28;20031;-72
2022/10/23 02:27:52;;;;;;;6.05;2.20;;;;;;;19.10;49.40;101051.06;5052185;28;20036;-59
2022/10/23 02:30:19;;;;;;;3.78;1.75;;;;;;;19.14;49.43;101049.72;5035521;28;20538;-59
2022/10/23 02:32:47;;;;;;;13.23;2.38;;;;;;;19.15;49.28;101048.66;5051771;28;20059;-59
2022/10/23 02:35:12;;;;;;;6.63;2.20;;;;;;;19.17;49.69;101046.63;5052243;28;20033;-59
2022/10/23 02:37:38;;;;;;;7.97;2.53;;;;;;;19.21;49.73;101041.66;5035458;28;20033;-60
2022/10/23 02:40:04;;;;;;;7.95;2.20;;;;;;;19.22;49.28;101034.38;5035071;28;20032;-59
2022/10/23 02:42:35;;;;;;;3.80;1.80;;;;;;;19.24;49.87;101025.00;5035287;28;20383;-59
2022/10/23 02:45:15;;;;;;;5.00;2.13;;;;;;;19.26;49.56;101024.84;5051791;28;20462;-59
2022/10/23 02:48:03;;;;;;;5.32;2.35;;;;;;;19.29;49.67;101021.78;5035257;28;20025;-59
2022/10/23 02:50:38;;;;;;;5.32;2.95;;;;;;;19.25;49.44;101004.13;5053270;28;20024;-59
2022/10/23 02:53:06;;;;;;;4.30;2.25;;;;;;;19.32;49.79;101007.84;5035088;28;20024;-59
2022/10/23 02:55:53;;;;;;;5.15;1.63;;;;;;;19.35;50.11;101004.72;5053182;28;20029;-59
2022/10/23 02:58:53;;;;;;;5.63;2.28;;;;;;;19.38;49.98;101001.66;5052996;28;20049;-59
2022/10/23 03:01:21;;;;;;;10.20;1.77;;;;;;;19.40;49.89;100994.22;5052996;28;20526;-60
2022/10/23 03:03:51;;;;;;;7.68;2.13;;;;;;;19.40;49.53;100980.63;5035152;28;20036;-60
2022/10/23 03:06:16;;;;;;;5.00;2.05;;;;;;;19.48;50.18;100965.09;5035086;28;20470;-59
2022/10/23 03:08:59;;;;;;;4.55;1.60;;;;;;;19.52;50.61;100958.25;5036034;28;20112;-60
2022/10/23 03:11:24;;;;;;;4.57;2.00;;;;;;;19.58;50.44;100962.09;5056531;28;20100;-60
2022/10/23 03:13:50;;;;;;;9.45;1.50;;;;;;;19.59;50.84;100963.81;5056451;28;20067;-59
2022/10/23 03:16:15;;;;;;;2.90;1.85;;;;;;;19.63;50.15;100962.41;5056455;28;20074;-59
2022/10/23 03:18:41;;;;;;;4.20;2.30;;;;;;;19.67;50.23;100961.88;5056478;28;20029;-59
2022/10/23 03:21:06;;;;;;;4.75;2.33;;;;;;;19.65;50.16;100954.94;5056435;28;20025;-59
2022/10/23 03:23:32;;;;;;;6.53;2.00;;;;;;;19.72;50.38;100966.72;5055263;28;20445;-59
2022/10/23 03:25:57;;;;;;;6.88;2.15;;;;;;;19.69;50.46;100948.06;5038434;28;20025;-59
2022/10/23 03:28:22;;;;;;;6.93;1.88;;;;;;;19.78;50.51;100963.28;5038418;28;20094;-59
2022/10/23 03:30:48;;;;;;;6.03;2.00;;;;;;;19.82;50.49;100967.28;5056256;28;20541;-59
2022/10/23 03:33:13;;;;;;;3.72;1.88;;;;;;;19.80;50.61;100957.63;5056104;28;20049;-59
2022/10/23 03:35:39;;;;;;;2.78;1.45;;;;;;;19.82;50.22;100953.69;5038465;28;20056;-59
2022/10/23 03:38:04;;;;;;;5.03;1.98;;;;;;;19.89;50.63;100957.38;5056112;28;20032;-59
2022/10/23 03:40:29;;;;;;;6.00;2.00;;;;;;;19.91;50.59;100958.03;5055971;28;20436;-60
2022/10/23 03:42:55;;;;;;;10.57;2.28;;;;;;;19.92;50.41;100954.28;5055878;28;20028;-59
2022/10/23 03:45:20;;;;;;;4.82;2.30;;;;;;;19.92;50.84;100943.41;5055916;28;20029;-59
2022/10/23 03:47:45;;;;;;;6.78;1.85;;;;;;;19.94;50.23;100945.94;5055883;28;20029;-59
2022/10/23 03:50:12;;;;;;;4.80;1.90;;;;;;;19.92;50.67;100940.69;5056148;28;20099;-68
2022/10/23 03:52:38;;;;;;;7.68;1.60;;;;;;;19.85;50.32;100918.00;5021852;28;20036;-59
2022/10/23 03:55:04;;;;;;;5.78;1.70;;;;;;;19.92;50.13;100932.53;5055652;28;20033;-60
2022/10/23 03:57:29;;;;;;;2.50;1.70;;;;;;;19.93;50.34;100928.81;5055797;28;20039;-59
2022/10/23 03:59:55;;;;;;;5.25;1.83;;;;;;;19.93;50.89;100933.38;5038110;28;20025;-59
2022/10/23 04:02:20;;;;;;;6.15;2.00;;;;;;;19.93;50.99;100925.22;5055885;28;20504;-59
2022/10/23 04:04:45;;;;;;;7.80;2.33;;;;;;;19.93;50.69;100926.09;5055687;28;20509;-59
2022/10/23 04:07:11;;;;;;;10.18;1.95;;;;;;;19.92;50.50;100921.66;5055832;28;20033;-59
2022/10/23 04:09:36;;;;;;;5.70;1.77;;;;;;;19.95;50.64;100925.88;5037687;28;20064;-59
2022/10/23 04:12:02;;;;;;;5.90;2.03;;;;;;;19.95;50.79;100920.44;5055744;28;20483;-60
2022/10/23 04:14:27;;;;;;;3.45;1.38;;;;;;;19.93;50.79;100917.94;5055685;28;20479;-59
2022/10/23 04:16:52;;;;;;;7.32;2.53;;;;;;;19.93;50.54;100912.47;5037663;28;20025;-59
2022/10/23 04:19:18;;;;;;;2.83;1.55;;;;;;;19.95;50.53;100904.13;5055483;28;20112;-59
2022/10/23 04:21:43;;;;;;;2.95;1.30;;;;;;;19.95;50.91;100904.97;5053709;28;20024;-59
2022/10/23 04:24:09;;;;;;;5.72;1.58;;;;;;;19.95;50.64;100904.97;5055276;28;20029;-59
2022/10/23 04:26:34;;;;;;;8.75;2.05;;;;;;;19.95;50.40;100898.69;5055170;28;20474;-59
2022/10/23 04:29:00;;;;;;;2.65;1.63;;;;;;;19.93;49.73;100896.16;5055474;28;20040;-59
2022/10/23 04:31:25;;;;;;;6.45;2.22;;;;;;;19.96;50.63;100892.22;5020622;28;20128;-59
2022/10/23 04:33:51;;;;;;;2.63;1.67;;;;;;;19.91;51.13;100887.34;5053918;28;20021;-64
2022/10/23 04:36:16;;;;;;;7.95;1.92;;;;;;;19.96;51.01;100903.91;5037411;28;20032;-59
2022/10/23 04:38:41;;;;;;;3.58;1.67;;;;;;;19.98;51.01;100903.75;5054974;28;20032;-59
2022/10/23 04:41:07;;;;;;;5.38;1.90;;;;;;;19.98;51.26;100904.59;5054892;28;20064;-59
2022/10/23 04:43:32;;;;;;;4.28;1.95;;;;;;;19.91;50.27;100889.19;5037285;28;20036;-59
2022/10/23 04:45:58;;;;;;;3.05;1.70;;;;;;;19.91;50.55;100879.19;5037027;28;20127;-59
2022/10/23 04:48:23;;;;;;;7.38;1.95;;;;;;;19.97;50.94;100886.59;5037046;28;20115;-59
2022/10/23 04:50:59;;;;;;;11.05;1.73;;;;;;;19.97;50.83;100886.59;5036825;28;20394;-59
2022/10/23 04:53:26;;;;;;;7.18;2.13;;;;;;;19.98;50.58;100887.44;5037273;28;20126;-59
2022/10/23 04:55:54;;;;;;;4.95;1.23;;;;;;;19.96;51.25;100890.31;5054806;28;20390;-59
2022/10/23 04:58:19;;;;;;;7.93;1.83;;;;;;;19.95;50.41;100883.22;5053508;28;20079;-68
2022/10/23 05:00:45;;;;;;;4.05;1.80;;;;;;;19.94;50.84;100884.25;5020109;28;20032;-59
2022/10/23 05:03:11;;;;;;;4.90;1.73;;;;;;;19.89;51.15;100873.09;5054547;28;20033;-59
2022/10/23 05:05:36;;;;;;;3.13;1.73;;;;;;;19.92;50.76;100877.31;5054383;28;20141;-59
2022/10/23 05:08:01;;;;;;;3.65;1.48;;;;;;;19.92;50.93;100882.75;5054605;28;20482;-59
2022/10/23 05:10:27;;;;;;;5.57;1.45;;;;;;;19.90;50.83;100880.22;5036430;28;20051;-60
2022/10/23 05:12:52;;;;;;;2.80;1.45;;;;;;;19.88;50.57;100876.84;5054181;28;20028;-59
2022/10/23 05:15:17;;;;;;;4.63;2.25;;;;;;;19.87;51.25;100874.31;5053004;28;20071;-60
2022/10/23 05:17:45;;;;;;;4.47;1.60;;;;;;;19.83;50.90;100870.28;5054416;28;20036;-59
2022/10/23 05:20:17;;;;;;;3.75;1.38;;;;;;;19.81;50.85;100875.91;5036442;28;20151;-60
2022/10/23 05:22:43;;;;;;;4.47;1.38;;;;;;;19.79;50.90;100867.09;5036599;28;20103;-64
2022/10/23 05:25:11;;;;;;;9.77;1.88;;;;;;;19.77;50.99;100866.44;5036172;28;20075;-59
2022/10/23 05:27:36;;;;;;;2.60;1.58;;;;;;;19.73;50.62;100863.28;5036268;28;20025;-59
2022/10/23 05:30:03;;;;;;;3.58;1.52;;;;;;;19.71;50.25;100856.31;5036386;28;20044;-59
2022/10/23 05:32:29;;;;;;;5.90;1.25;;;;;;;19.63;50.53;100840.09;5035902;28;20053;-59
2022/10/23 05:34:55;;;;;;;2.45;1.42;;;;;;;19.67;50.57;100849.56;5036079;28;20039;-59
2022/10/23 05:37:20;;;;;;;2.72;1.60;;;;;;;19.61;50.55;100843.00;5053771;28;20033;-59
2022/10/23 05:39:46;;;;;;;8.65;1.75;;;;;;;19.60;50.72;100852.19;5036155;28;20033;-59
2022/10/23 05:42:11;;;;;;;4.55;1.08;;;;;;;19.51;50.44;100837.03;5035748;28;20032;-59
2022/10/23 05:44:37;;;;;;;2.05;1.30;;;;;;;19.55;50.78;100848.34;5035926;28;20156;-59
2022/10/23 05:47:02;;;;;;;10.25;1.67;;;;;;;19.54;50.71;100846.69;5053539;28;20032;-59
2022/10/23 05:49:27;;;;;;;5.47;1.75;;;;;;;19.52;50.13;100840.56;5053738;28;20071;-59
2022/10/23 05:51:53;;;;;;;5.88;1.80;;;;;;;19.51;50.09;100841.63;5053742;28;20478;-59
2022/10/23 05:54:18;;;;;;;3.40;1.30;;;;;;;19.49;50.46;100840.94;5053718;28;20102;-60
2022/10/23 05:56:43;;;;;;;3.60;1.70;;;;;;;19.49;50.19;100841.78;5035798;28;20033;-63
2022/10/23 05:59:09;;;;;;;2.80;1.50;;;;;;;19.44;50.05;100824.34;5053521;28;20060;-64
2022/10/23 06:01:36;;;;;;;1.80;1.38;;;;;;;19.50;50.76;100837.19;5035721;28;20029;-59
2022/10/23 06:04:02;;;;;;;3.30;1.48;;;;;;;19.49;50.45;100824.63;5053656;28;20033;-60
2022/10/23 06:06:27;;;;;;;2.28;1.40;;;;;;;19.52;50.50;100833.25;5053606;28;20099;-59
2022/10/23 06:08:53;;;;;;;3.33;1.02;;;;;;;19.50;50.68;100826.31;5053288;28;20033;-60
2022/10/23 06:11:18;;;;;;;2.92;0.90;;;;;;;19.54;50.22;100830.38;5053451;28;20036;-60
2022/10/23 06:13:45;;;;;;;5.50;1.63;;;;;;;19.57;50.88;100824.56;5053441;28;20033;-59
2022/10/23 06:16:15;;;;;;;11.55;1.77;;;;;;;19.57;51.01;100824.56;5053440;28;20094;-59
2022/10/23 06:18:41;;;;;;;7.68;1.50;;;;;;;19.59;50.48;100822.50;5053818;28;20032;-59
2022/10/23 06:21:06;;;;;;;7.22;1.48;;;;;;;19.61;50.46;100823.13;5052105;28;20017;-59
2022/10/23 06:23:33;;;;;;;5.15;1.13;;;;;;;19.61;50.63;100820.41;5053526;28;20033;-59
2022/10/23 06:25:59;;;;;;;9.60;1.58;;;;;;;19.61;51.12;100809.56;5035725;28;20493;-59
2022/10/23 06:28:25;;;;;;;2.50;1.25;;;;;;;19.67;50.58;100808.81;5053193;28;20064;-59
2022/10/23 06:30:50;;;;;;;1.80;1.55;;;;;;;19.67;50.96;100804.22;5035629;28;20033;-59
2022/10/23 06:33:15;;;;;;;5.05;2.28;;;;;;;19.75;50.52;100805.97;5035292;28;20525;-59
2022/10/23 06:35:41;;;;;;;2.38;1.00;;;;;;;19.79;50.70;100804.59;5035515;28;20478;-59
2022/10/23 06:38:08;;;;;;;9.23;1.70;;;;;;;19.83;50.65;100807.75;5053241;28;20025;-59
2022/10/23 06:40:33;;;;;;;4.32;1.40;;;;;;;19.87;51.16;100796.31;5053190;28;20104;-59
2022/10/23 06:42:59;;;;;;;5.88;2.38;;;;;;;19.91;51.06;100794.88;5053207;28;20136;-59
2022/10/23 06:45:24;;;;;;;5.85;1.67;;;;;;;19.95;51.20;100793.50;5056894;28;20043;-59
2022/10/23 06:47:50;;;;;;;4.00;1.45;;;;;;;20.00;50.67;100796.47;5057177;28;20032;-60
2022/10/23 06:50:15;;;;;;;5.65;1.20;;;;;;;20.04;51.40;100783.34;5057128;28;20059;-59
2022/10/23 06:52:41;;;;;;;2.65;1.90;;;;;;;20.06;51.02;100784.84;5039260;28;20065;-73
2022/10/23 06:55:07;;;;;;;5.47;1.90;;;;;;;20.10;51.44;100780.69;5038948;28;20032;-59
2022/10/23 06:57:32;;;;;;;2.13;1.33;;;;;;;20.13;51.20;100783.00;5039557;28;20029;-59
2022/10/23 06:59:57;;;;;;;2.47;1.48;;;;;;;20.18;51.57;100775.13;5057011;28;20040;-59
2022/10/23 07:02:23;;;;;;;3.50;1.30;;;;;;;20.24;50.91;100773.50;5056974;28;20052;-59
2022/10/23 07:04:48;;;;;;;5.53;1.42;;;;;;;20.25;51.04;100767.91;5056863;28;20067;-59
2022/10/23 07:07:13;;;;;;;5.47;1.70;;;;;;;20.31;51.50;100758.97;5056798;28;20036;-60
2022/10/23 07:09:39;;;;;;;3.72;1.60;;;;;;;20.41;50.99;100761.38;5056611;28;20111;-59
2022/10/23 07:12:04;;;;;;;9.30;1.63;;;;;;;20.47;50.94;100767.91;5057415;28;20032;-59
2022/10/23 07:14:31;;;;;;;3.10;1.17;;;;;;;20.56;50.79;100772.19;5056636;28;20489;-59
2022/10/23 07:16:56;;;;;;;3.22;1.23;;;;;;;20.65;51.50;100779.19;5039160;28;20067;-59
2022/10/23 07:19:22;;;;;;;1.50;1.13;;;;;;;20.71;50.89;100767.53;5038580;28;20486;-59
2022/10/23 07:21:47;;;;;;;4.30;1.63;;;;;;;20.83;50.86;100769.50;5056570;28;20363;-59
2022/10/23 07:24:13;;;;;;;1.98;1.20;;;;;;;20.98;51.41;100771.28;5038607;28;20052;-59
2022/10/23 07:26:40;;;;;;;6.72;1.65;;;;;;;21.09;50.32;100776.22;5056515;28;20033;-59
2022/10/23 07:29:06;;;;;;;4.68;1.52;;;;;;;21.23;51.02;100775.28;5056236;28;20048;-59
2022/10/23 07:31:31;;;;;;;6.28;2.08;;;;;;;21.44;50.52;100767.00;5056245;28;20045;-59
2022/10/23 07:33:57;;;;;;;2.47;1.48;;;;;;;21.70;49.92;100774.50;5056307;28;20037;-60
2022/10/23 07:36:22;;;;;;;5.97;1.38;;;;;;;21.89;50.17;100773.75;5056015;28;20036;-61
2022/10/23 07:38:47;;;;;;;1.52;1.40;;;;;;;22.05;50.45;100776.16;5056040;28;20036;-60
2022/10/23 07:41:13;;;;;;;4.60;1.25;;;;;;;22.25;49.73;100768.03;5038034;28;20122;-59
2022/10/23 07:43:38;;;;;;;2.60;1.20;;;;;;;22.33;49.50;100765.09;5055775;28;20056;-60
2022/10/23 07:46:04;;;;;;;4.95;1.30;;;;;;;22.47;49.68;100769.53;5055920;28;20028;-59
2022/10/23 07:48:29;;;;;;;1.83;1.33;;;;;;;22.57;50.40;100776.25;5055807;28;20028;-60
2022/10/23 07:51:06;;;;;;;2.35;1.40;;;;;;;22.68;49.79;100783.00;5055661;28;20024;-60
2022/10/23 07:53:32;;;;;;;9.68;1.75;;;;;;;22.74;50.35;100778.59;5056035;28;20025;-60
2022/10/23 07:56:00;;;;;;;4.53;1.58;;;;;;;22.84;50.36;100781.75;5054280;28;20474;-60
2022/10/23 07:58:27;;;;;;;5.45;1.40;;;;;;;22.87;49.53;100778.59;5055714;28;20121;-60
2022/10/23 08:00:57;;;;;;;6.18;1.38;;;;;;;22.87;49.47;100775.88;5055332;28;20018;-60
2022/10/23 08:03:22;;;;;;;4.63;1.00;;;;;;;22.86;50.51;100785.97;5054292;28;20437;-60
2022/10/23 08:05:48;;;;;;;4.13;1.23;;;;;;;22.83;50.17;100780.09;5055513;28;20029;-60
2022/10/23 08:08:13;;;;;;;4.13;1.02;;;;;;;22.81;50.33;100787.66;5055231;28;20048;-60
2022/10/23 08:10:40;;;;;;;3.45;1.30;;;;;;;22.79;50.34;100773.34;5055187;28;20108;-60
2022/10/23 08:13:06;;;;;;;3.05;1.42;;;;;;;22.77;49.99;100767.25;5037705;28;20500;-59
2022/10/23 08:15:31;;;;;;;3.55;1.80;;;;;;;22.76;50.31;100763.69;5037499;28;20133;-60
2022/10/23 08:17:56;;;;;;;5.03;1.70;;;;;;;22.78;50.35;100752.56;5055132;28;20079;-60
2022/10/23 08:20:22;;;;;;;4.72;1.40;;;;;;;22.80;50.46;100747.72;5055051;28;20032;-60
2022/10/23 08:22:47;;;;;;;2.90;1.63;;;;;;;22.83;50.29;100741.84;5055050;28;20033;-60
2022/10/23 08:25:12;;;;;;;6.40;1.70;;;;;;;22.87;49.65;100732.16;5055014;28;20394;-60
2022/10/23 08:27:38;;;;;;;3.17;1.10;;;;;;;22.90;50.29;100726.28;5054968;28;20577;-60
2022/10/23 08:30:04;;;;;;;3.35;1.80;;;;;;;22.95;49.19;100729.19;5037170;28;20029;-61
2022/10/23 08:32:29;;;;;;;1.58;1.05;;;;;;;22.99;49.18;100719.53;5054791;28;20422;-61
2022/10/23 08:34:55;;;;;;;1.92;0.98;;;;;;;22.98;50.27;100718.69;5054791;28;20044;-60
2022/10/23 08:37:20;;;;;;;2.20;0.85;;;;;;;22.98;49.25;100717.84;5037079;28;20037;-60
2022/10/23 08:39:45;;;;;;;4.90;1.80;;;;;;;22.93;49.94;100704.84;5054685;28;20100;-60
2022/10/23 08:42:20;;;;;;;10.77;1.60;;;;;;;22.96;49.88;100700.84;5036818;28;20024;-60
2022/10/23 08:44:54;;;;;;;1.92;1.02;;;;;;;22.94;49.47;100697.50;5053700;28;20115;-60
2022/10/23 08:47:36;;;;;;;6.38;1.08;;;;;;;22.96;49.85;100692.63;5054610;28;20098;-60
2022/10/23 08:50:11;;;;;;;1.98;0.90;;;;;;;22.96;49.95;100687.19;5054868;28;20363;-60
2022/10/23 08:52:46;;;;;;;5.00;1.08;;;;;;;23.01;50.06;100682.75;5054463;28;20071;-60
2022/10/23 08:55:20;;;;;;;1.38;0.80;;;;;;;23.07;49.37;100691.97;5036961;28;20032;-59
2022/10/23 08:58:16;;;;;;;1.40;0.95;;;;;;;23.13;50.30;100682.94;5036710;28;20067;-60
2022/10/23 09:00:42;;;;;;;3.90;1.13;;;;;;;23.14;49.71;100669.03;5009500;28;70118;-60
2022/10/23 09:03:09;;;;;;;4.93;1.58;;;;;;;23.27;49.47;100672.81;5029959;28;20087;-60
2022/10/23 09:05:56;;;;;;;6.80;1.17;;;;;;;23.36;49.47;100666.88;5029972;28;20037;-59
2022/10/23 09:08:28;;;;;;;1.63;1.13;;;;;;;23.45;49.20;100671.06;5011155;28;20041;-60
2022/10/23 09:11:34;;;;;;;3.13;1.15;;;;;;;23.59;49.61;100671.88;5014311;28;20030;-60
2022/10/23 09:14:12;;;;;;;6.85;1.48;;;;;;;23.67;49.81;100657.94;5029617;28;20495;-60
2022/10/23 09:17:10;;;;;;;2.90;1.45;;;;;;;23.90;49.64;100654.66;5013969;28;20459;-60
2022/10/23 09:19:35;;;;;;;1.92;1.20;;;;;;;23.95;48.78;100657.56;5007238;28;20552;-60
2022/10/23 09:22:01;;;;;;;3.65;1.15;;;;;;;23.94;49.38;100653.13;5013580;28;20120;-60
2022/10/23 09:24:30;;;;;;;2.70;1.42;;;;;;;23.91;49.89;100639.91;5013961;28;20034;-60
2022/10/23 09:26:56;;;;;;;4.68;0.90;;;;;;;23.88;48.86;100643.91;5014167;28;20471;-60
2022/10/23 09:29:34;;;;;;;1.15;0.70;;;;;;;23.83;49.46;100632.78;5029134;28;20041;-60
2022/10/23 09:32:05;;;;;;;3.53;1.00;;;;;;;23.80;49.65;100630.50;5013608;28;20443;-60
2022/10/23 09:34:32;;;;;;;4.93;1.35;;;;;;;23.80;49.42;100624.19;5012602;28;20038;-60
2022/10/23 09:37:00;;;;;;;6.57;1.52;;;;;;;23.81;49.37;100623.13;5013991;28;20471;-60
2022/10/23 09:39:27;;;;;;;6.93;0.95;;;;;;;23.82;49.84;100620.16;5013460;28;20021;-60
2022/10/23 09:41:55;;;;;;;6.10;0.90;;;;;;;23.87;49.92;100620.34;5014126;28;20026;-60
2022/10/23 09:44:26;;;;;;;3.95;1.45;;;;;;;23.91;50.01;100609.78;5012473;28;20388;-60
2022/10/23 09:46:54;;;;;;;5.45;1.23;;;;;;;23.94;49.82;100612.09;5012709;28;20030;-60
2022/10/23 09:49:29;;;;;;;5.78;1.13;;;;;;;23.97;49.98;100617.13;5012549;28;20065;-60
2022/10/23 09:52:09;;;;;;;4.75;1.40;;;;;;;23.99;49.15;100617.72;5009883;28;20578;-60
2022/10/23 09:54:43;;;;;;;3.33;1.23;;;;;;;23.99;49.25;100615.00;5013655;28;20041;-60
2022/10/23 09:59:49;;;;;;;1.27;0.80;;;;;;;23.95;49.72;100600.94;5221046;23;20044;-69
2022/10/23 10:02:23;;;;;;;2.30;1.05;;;;;;;23.96;50.07;100590.81;5037444;28;20085;-69
2022/10/23 10:04:48;;;;;;;7.60;0.98;;;;;;;23.87;50.05;100573.00;5064230;23;20069;-91
2022/10/23 10:07:21;;;;;;;2.60;1.40;;;;;;;23.86;50.45;100574.91;4983793;28;20049;-92
2022/10/23 10:09:46;;;;;;;2.97;1.02;;;;;;;23.97;50.16;100592.50;5000813;28;20026;-90
2022/10/23 10:15:08;;;;;;;2.15;1.00;;;;;;;24.00;50.19;100587.41;5010483;28;20061;-67
2022/10/23 10:17:46;;;;;;;2.47;1.10;;;;;;;24.01;49.50;100577.31;5011681;28;20046;-68
2022/10/23 10:20:18;;;;;;;1.90;0.90;;;;;;;23.97;49.94;100584.28;4995521;28;20498;-66
2022/10/23 10:23:06;;;;;;;1.92;1.10;;;;;;;23.94;49.75;100587.47;5012631;28;20038;-66
2022/10/23 10:25:39;;;;;;;2.40;1.00;;;;;;;23.93;50.40;100591.25;4995443;28;20069;-66
2022/10/23 10:28:31;;;;;;;0.95;0.75;;;;;;;23.90;49.72;100592.53;5012042;28;20037;-66
2022/10/23 10:31:18;;;;;;;4.70;1.00;;;;;;;23.95;49.92;100584.53;5011910;28;20041;-66
2022/10/23 10:34:02;;;;;;;4.22;1.00;;;;;;;23.99;50.27;100584.88;5012689;28;20038;-67
2022/10/23 10:39:08;;;;;;;4.78;1.00;;;;;;;24.00;50.13;100572.91;5014497;23;20047;-63
2022/10/23 10:41:41;;;;;;;2.53;1.02;;;;;;;23.98;50.65;100569.56;4993778;28;20030;-62
2022/10/23 10:44:12;;;;;;;4.55;0.90;;;;;;;23.98;50.75;100569.56;5013709;28;20487;-62
2022/10/23 10:46:43;;;;;;;3.85;0.93;;;;;;;23.98;50.16;100562.16;5015167;28;20034;-60
2022/10/23 10:49:18;;;;;;;0.75;0.73;;;;;;;24.00;50.48;100559.22;5010247;28;20046;-61
2022/10/23 10:51:44;;;;;;;1.73;0.93;;;;;;;24.09;50.30;100571.56;4993962;28;20038;-60
2022/10/23 10:54:35;;;;;;;3.80;1.27;;;;;;;24.22;49.79;100568.75;4995252;28;20038;-61
2022/10/23 10:57:04;;;;;;;1.75;1.20;;;;;;;24.30;50.34;100555.59;5008871;28;20034;-61
2022/10/23 10:59:31;;;;;;;3.25;1.15;;;;;;;24.35;49.55;100530.28;5013876;28;20033;-62
2022/10/23 11:02:15;;;;;;;5.68;1.05;;;;;;;24.41;50.12;100532.09;5014758;28;20034;-61
2022/10/23 11:04:47;;;;;;;9.05;1.35;;;;;;;24.49;50.07;100526.31;5014518;28;20045;-61
2022/10/23 11:07:14;;;;;;;;;;;;;;;24.64;50.12;100535.03;5014469;28;20434;-60
2022/10/23 11:09:41;;;;;;;5.75;1.75;;;;;;;24.79;49.31;100538.22;5013215;28;20406;-62
2022/10/23 11:12:06;;;;;;;1.92;0.93;;;;;;;25.00;49.56;100541.56;5013178;28;20049;-61
2022/10/23 11:14:33;;;;;;;5.03;1.30;;;;;;;25.18;49.84;100527.84;4997023;28;20022;-61
2022/10/23 11:17:04;;;;;;;3.22;0.88;;;;;;;25.33;49.50;100533.75;4996924;28;20056;-61
2022/10/23 11:19:36;;;;;;;3.08;1.10;;;;;;;25.47;48.59;100529.78;5013339;28;20060;-61
2022/10/23 11:22:19;;;;;;;4.55;1.13;;;;;;;25.68;49.07;100518.28;5013486;28;20388;-61
2022/10/23 11:25:11;;;;;;;5.32;1.10;;;;;;;25.99;48.62;100509.69;5013924;28;20048;-61
2022/10/23 11:27:57;;;;;;;5.68;1.02;;;;;;;26.23;48.46;100501.50;5012776;28;20405;-61
2022/10/23 11:30:43;;;;;;;2.05;1.50;;;;;;;26.59;48.25;100495.75;5008718;28;20120;-62
2022/10/23 11:33:46;;;;;;;6.82;1.15;;;;;;;26.84;48.06;100492.72;5016373;28;20041;-62
2022/10/23 11:36:42;;;;;;;3.35;1.13;;;;;;;26.90;48.34;100486.25;5015842;28;20176;-62
2022/10/23 11:39:15;;;;;;;3.88;1.05;;;;;;;26.90;48.14;100491.75;4978469;28;20442;-62
2022/10/23 11:41:48;;;;;;;4.47;1.05;;;;;;;26.89;47.95;100468.91;4978290;28;20111;-62